createdAt,value
2022-08-16T00:01:24.783Z,88.31
2022-08-16T00:03:54.070Z,89.14
2022-08-16T00:06:22.692Z,88.99
2022-08-16T00:08:50.264Z,88.79
2022-08-16T00:11:20.691Z,87.62
2022-08-16T00:13:53.645Z,87.95
2022-08-16T00:17:00.618Z,88.68
2022-08-16T00:19:22.753Z,88.62
2022-08-16T00:21:54.503Z,89.19
2022-08-16T00:24:31.097Z,87.93
2022-08-16T00:27:04.021Z,86.77
2022-08-16T00:29:31.935Z,88.42
2022-08-16T00:32:06.122Z,87.55
2022-08-16T00:34:43.869Z,87.51
2022-08-16T00:37:25.111Z,87.33
2022-08-16T00:40:34.194Z,87.21
2022-08-16T00:43:16.954Z,86.66
2022-08-16T00:46:34.668Z,85.92
2022-08-16T00:49:17.323Z,86.25
2022-08-16T00:51:53.799Z,85.56
2022-08-16T00:54:26.826Z,85.01
2022-08-16T00:56:59.931Z,85.08
2022-08-16T00:59:34.287Z,84.95
2022-08-16T01:02:30.050Z,85.07
2022-08-16T01:05:11.314Z,85.05
2022-08-16T01:07:51.761Z,84.86
2022-08-16T01:10:32.330Z,84.07
2022-08-16T01:13:21.310Z,83.69
2022-08-16T01:16:01.261Z,85.46
2022-08-16T01:18:55.035Z,86.50
2022-08-16T01:22:48.559Z,86.07
2022-08-16T01:25:18.762Z,87.23
2022-08-16T01:27:57.668Z,88.67
2022-08-16T01:30:53.027Z,89.65
2022-08-16T01:33:22.474Z,89.35
2022-08-16T01:36:09.328Z,90.29
2022-08-16T01:38:51.252Z,89.67
2022-08-16T01:41:30.611Z,89.44
2022-08-16T01:44:00.748Z,89.60
2022-08-16T01:46:43.085Z,90.23
2022-08-16T01:49:42.962Z,90.96
2022-08-16T01:52:27.984Z,90.23
2022-08-16T01:54:59.440Z,91.09
2022-08-16T01:57:28.033Z,89.99
2022-08-16T02:00:00.036Z,89.56
2022-08-16T02:02:29.061Z,88.58
2022-08-16T02:05:00.082Z,89.24
2022-08-16T02:07:27.549Z,89.79
2022-08-16T02:09:58.889Z,91.13
2022-08-16T02:12:45.853Z,90.89
2022-08-16T02:15:25.511Z,90.72
2022-08-16T02:18:01.213Z,91.33
2022-08-16T02:20:33.809Z,91.49
2022-08-16T02:23:05.808Z,91.90
2022-08-16T02:25:34.936Z,91.42
2022-08-16T02:28:19.533Z,91.89
2022-08-16T02:30:50.898Z,91.93
2022-08-16T02:33:44.036Z,91.79
2022-08-16T02:36:14.159Z,91.93
2022-08-16T02:38:44.366Z,91.53
2022-08-16T02:41:13.719Z,91.76
2022-08-16T02:43:41.070Z,91.88
2022-08-16T02:46:09.751Z,92.49
2022-08-16T02:48:39.189Z,91.71
2022-08-16T02:51:14.550Z,91.73
2022-08-16T02:53:48.412Z,92.05
2022-08-16T02:56:18.163Z,93.10
2022-08-16T02:58:48.347Z,92.99
2022-08-16T03:01:24.924Z,93.14
2022-08-16T03:04:29.985Z,93.06
2022-08-16T03:06:56.747Z,92.52
2022-08-16T03:09:28.511Z,91.65
2022-08-16T03:11:56.971Z,91.41
2022-08-16T03:14:24.627Z,90.84
2022-08-16T03:16:59.193Z,91.44
2022-08-16T03:19:47.967Z,91.35
2022-08-16T03:22:28.168Z,91.53
2022-08-16T03:25:00.983Z,91.75
2022-08-16T03:27:32.115Z,92.43
2022-08-16T03:30:17.604Z,92.23
2022-08-16T03:32:51.776Z,92.99
2022-08-16T03:35:24.262Z,93.39
2022-08-16T03:38:33.539Z,93.35
2022-08-16T03:40:54.341Z,93.44
2022-08-16T03:43:21.895Z,93.25
2022-08-16T03:45:52.522Z,93.35
2022-08-16T03:48:36.623Z,92.93
2022-08-16T03:51:10.408Z,92.70
2022-08-16T03:53:41.598Z,92.96
2022-08-16T03:56:18.673Z,93.11
2022-08-16T03:58:51.046Z,93.07
2022-08-16T04:01:22.491Z,92.61
2022-08-16T04:03:51.339Z,93.42
2022-08-16T04:06:20.634Z,93.16
2022-08-16T04:08:48.159Z,93.49
2022-08-16T04:11:16.439Z,93.30
2022-08-16T04:14:00.192Z,93.50
2022-08-16T04:16:32.363Z,92.67
2022-08-16T04:19:04.367Z,92.54
2022-08-16T04:21:47.467Z,92.82
2022-08-16T04:24:15.633Z,92.55
2022-08-16T04:26:46.471Z,92.46
2022-08-16T04:29:23.560Z,92.64
2022-08-16T04:31:56.629Z,92.95
2022-08-16T04:34:31.165Z,92.48
2022-08-16T04:37:01.941Z,91.78
2022-08-16T04:39:45.712Z,91.04
2022-08-16T04:42:17.375Z,91.48
2022-08-16T04:44:54.590Z,92.09
2022-08-16T04:47:31.509Z,92.21
2022-08-16T04:50:22.667Z,91.98
2022-08-16T04:52:57.808Z,92.13
2022-08-16T04:55:31.751Z,91.80
2022-08-16T04:58:43.650Z,91.31
2022-08-16T05:00:55.187Z,90.95
2022-08-16T05:03:24.026Z,91.67
2022-08-16T05:05:59.355Z,92.54
2022-08-16T05:08:32.800Z,92.10
2022-08-16T05:11:08.509Z,92.02
2022-08-16T05:13:42.379Z,92.52
2022-08-16T05:16:21.759Z,92.33
2022-08-16T05:18:53.790Z,90.76
2022-08-16T05:21:24.307Z,89.92
2022-08-16T05:23:58.535Z,88.31
2022-08-16T05:26:32.856Z,88.30
2022-08-16T05:29:04.358Z,88.52
2022-08-16T05:31:32.205Z,88.34
2022-08-16T05:34:03.779Z,87.56
2022-08-16T05:36:34.201Z,87.34
2022-08-16T05:39:07.893Z,85.74
2022-08-16T05:41:45.626Z,86.98
2022-08-16T05:44:22.558Z,86.98
2022-08-16T05:46:56.187Z,87.25
2022-08-16T05:49:38.919Z,86.50
2022-08-16T05:52:11.170Z,85.09
2022-08-16T05:54:46.837Z,84.44
2022-08-16T05:57:17.646Z,85.66
2022-08-16T05:59:50.666Z,85.55
2022-08-16T06:02:30.633Z,84.49
2022-08-16T06:05:00.644Z,84.03
2022-08-16T06:07:29.209Z,81.54
2022-08-16T06:10:00.174Z,81.51
2022-08-16T06:12:30.081Z,82.02
2022-08-16T06:15:04.574Z,80.91
2022-08-16T06:17:43.935Z,79.72
2022-08-16T06:20:23.534Z,80.72
2022-08-16T06:22:57.887Z,79.45
2022-08-16T06:25:36.643Z,78.68
2022-08-16T06:28:16.808Z,78.53
2022-08-16T06:30:45.223Z,76.79
2022-08-16T06:33:22.402Z,77.66
2022-08-16T06:35:59.350Z,79.27
2022-08-16T06:38:32.444Z,79.92
2022-08-16T06:41:13.548Z,76.67
2022-08-16T06:43:41.743Z,79.64
2022-08-16T06:46:31.898Z,79.79
2022-08-16T06:49:05.229Z,78.04
2022-08-16T06:51:46.199Z,78.55
2022-08-16T06:54:16.370Z,76.53
2022-08-16T06:56:44.119Z,76.22
2022-08-16T06:59:11.346Z,74.18
2022-08-16T07:01:44.713Z,75.28
2022-08-16T07:04:13.965Z,75.72
2022-08-16T07:07:01.897Z,75.71
2022-08-16T07:09:30.636Z,73.58
2022-08-16T07:12:03.651Z,75.34
2022-08-16T07:14:33.742Z,73.66
2022-08-16T07:17:03.265Z,73.89
2022-08-16T07:20:03.951Z,73.24
2022-08-16T07:22:52.385Z,73.32
2022-08-16T07:25:16.882Z,72.20
2022-08-16T07:27:44.297Z,71.57
2022-08-16T07:30:45.443Z,71.12
2022-08-16T07:33:03.323Z,72.96
2022-08-16T07:35:31.447Z,73.21
2022-08-16T07:38:01.510Z,73.41
2022-08-16T07:40:58.120Z,72.19
2022-08-16T07:43:18.038Z,70.05
2022-08-16T07:45:49.465Z,70.68
2022-08-16T07:48:20.935Z,70.18
2022-08-16T07:50:57.341Z,68.58
2022-08-16T07:53:30.797Z,66.95
2022-08-16T07:56:00.542Z,67.24
2022-08-16T07:58:34.955Z,68.54
2022-08-16T08:01:10.410Z,67.46
2022-08-16T08:03:49.272Z,67.05
2022-08-16T08:06:25.099Z,69.18
2022-08-16T08:08:57.191Z,66.61
2022-08-16T08:11:28.120Z,65.37
2022-08-16T08:14:03.497Z,64.76
2022-08-16T08:16:32.951Z,61.82
2022-08-16T08:19:02.873Z,63.22
2022-08-16T08:21:58.791Z,63.40
2022-08-16T08:24:22.204Z,63.75
2022-08-16T08:27:02.134Z,63.61
2022-08-16T08:29:37.596Z,66.20
2022-08-16T08:32:58.045Z,64.69
2022-08-16T08:35:03.415Z,62.64
2022-08-16T08:37:55.296Z,61.71
2022-08-16T08:40:24.772Z,60.69
2022-08-16T08:43:00.734Z,60.72
2022-08-16T08:45:52.970Z,62.22
2022-08-16T08:48:34.369Z,60.41
2022-08-16T08:51:09.677Z,59.74
2022-08-16T08:53:37.856Z,57.50
2022-08-16T08:56:23.713Z,58.86
2022-08-16T08:58:54.242Z,57.88
2022-08-16T09:01:42.779Z,55.75
2022-08-16T09:04:23.260Z,56.33
2022-08-16T09:06:50.949Z,57.27
2022-08-16T09:09:17.929Z,55.09
2022-08-16T09:11:53.602Z,53.94
2022-08-16T09:14:27.507Z,54.38
2022-08-16T09:17:01.680Z,52.89
2022-08-16T09:19:34.658Z,52.39
2022-08-16T09:22:02.267Z,53.17
2022-08-16T09:24:52.571Z,53.04
2022-08-16T09:27:17.027Z,52.34
2022-08-16T09:29:46.478Z,51.14
2022-08-16T09:32:28.744Z,49.45
2022-08-16T09:34:58.484Z,50.30
2022-08-16T09:37:36.799Z,49.62
2022-08-16T09:40:31.913Z,48.79
2022-08-16T09:42:59.485Z,50.25
2022-08-16T09:45:38.985Z,47.68
2022-08-16T09:48:12.088Z,49.53
2022-08-16T09:50:59.107Z,47.21
2022-08-16T09:53:29.629Z,47.40
2022-08-16T09:55:57.665Z,45.84
2022-08-16T09:58:40.617Z,46.21
2022-08-16T10:01:14.161Z,46.11
2022-08-16T10:04:01.944Z,47.46
2022-08-16T10:06:33.670Z,47.44
2022-08-16T10:09:15.486Z,46.67
2022-08-16T10:12:11.790Z,46.84
2022-08-16T10:14:46.667Z,44.33
2022-08-16T10:17:13.897Z,45.32
2022-08-16T10:19:43.146Z,44.96
2022-08-16T10:22:10.828Z,44.45
2022-08-16T10:24:55.762Z,43.01
2022-08-16T10:27:30.051Z,44.24
2022-08-16T10:30:26.094Z,42.50
2022-08-16T10:32:56.102Z,41.92
2022-08-16T10:35:24.280Z,42.45
2022-08-16T10:38:01.244Z,45.00
2022-08-16T10:40:30.461Z,40.52
2022-08-16T10:43:01.071Z,40.56
2022-08-16T10:45:37.105Z,42.44
2022-08-16T10:48:27.565Z,40.67
2022-08-16T10:51:00.938Z,42.94
2022-08-16T10:53:32.636Z,40.97
2022-08-16T10:56:06.362Z,42.10
2022-08-16T10:58:52.969Z,43.86
2022-08-16T11:01:39.790Z,43.52
2022-08-16T11:05:04.877Z,42.69
2022-08-16T11:08:06.901Z,41.28
2022-08-16T11:09:43.232Z,43.18
2022-08-16T11:12:13.939Z,44.30
2022-08-16T11:15:11.406Z,42.07
2022-08-16T11:17:32.787Z,42.86
2022-08-16T11:20:41.501Z,40.76
2022-08-16T11:22:50.552Z,41.36
2022-08-16T11:28:12.487Z,38.63
2022-08-16T11:30:59.435Z,37.14
2022-08-16T11:36:22.522Z,39.42
2022-08-16T11:38:57.025Z,40.89
2022-08-16T11:41:25.030Z,40.10
2022-08-16T11:43:53.584Z,39.70
2022-08-16T11:46:43.740Z,40.29
2022-08-16T11:49:13.454Z,39.16
2022-08-16T11:51:44.335Z,40.70
2022-08-16T11:54:20.932Z,41.49
2022-08-16T11:56:52.860Z,38.57
2022-08-16T11:59:28.517Z,37.77
2022-08-16T12:01:59.803Z,37.62
2022-08-16T12:04:32.320Z,38.29
2022-08-16T12:07:07.908Z,39.08
2022-08-16T12:09:41.274Z,37.59
2022-08-16T12:12:11.112Z,36.56
2022-08-16T12:14:38.970Z,35.48
2022-08-16T12:17:08.353Z,34.45
2022-08-16T12:19:36.446Z,35.74
2022-08-16T12:22:19.679Z,36.64
2022-08-16T12:24:52.239Z,35.24
2022-08-16T12:27:24.610Z,36.92
2022-08-16T12:29:58.426Z,38.62
2022-08-16T12:32:41.850Z,37.13
2022-08-16T12:35:15.193Z,38.36
2022-08-16T12:37:46.233Z,38.99
2022-08-16T12:40:24.865Z,40.39
2022-08-16T12:42:59.685Z,39.45
2022-08-16T12:45:35.725Z,39.37
2022-08-16T12:48:34.859Z,36.59
2022-08-16T12:51:19.957Z,36.27
2022-08-16T12:53:55.803Z,35.91
2022-08-16T12:56:33.469Z,37.53
2022-08-16T12:59:09.634Z,36.12
2022-08-16T13:01:41.696Z,35.82
2022-08-16T13:04:12.255Z,37.76
2022-08-16T13:06:52.026Z,38.66
2022-08-16T13:09:24.159Z,37.42
2022-08-16T13:12:16.313Z,36.63
2022-08-16T13:14:44.994Z,36.88
2022-08-16T13:17:22.273Z,38.85
2022-08-16T13:20:07.108Z,41.03
2022-08-16T13:22:41.433Z,39.62
2022-08-16T13:25:20.947Z,39.66
2022-08-16T13:28:02.987Z,39.19
2022-08-16T13:30:41.073Z,39.21
2022-08-16T13:33:24.806Z,40.03
2022-08-16T13:35:56.022Z,40.50
2022-08-16T13:38:24.955Z,39.75
2022-08-16T13:40:56.991Z,40.09
2022-08-16T13:43:32.497Z,40.44
2022-08-16T13:46:04.642Z,40.56
2022-08-16T13:48:43.393Z,42.36
2022-08-16T13:51:18.109Z,44.15
2022-08-16T13:53:59.792Z,42.15
2022-08-16T13:56:37.629Z,40.76
2022-08-16T13:59:19.648Z,40.65
2022-08-16T14:01:59.565Z,38.38
2022-08-16T14:04:36.535Z,39.41
2022-08-16T14:07:21.290Z,39.70
2022-08-16T14:09:55.284Z,38.96
2022-08-16T14:12:30.256Z,38.58
2022-08-16T14:14:59.268Z,38.64
2022-08-16T14:17:29.007Z,40.06
2022-08-16T14:19:59.673Z,39.17
2022-08-16T14:22:35.062Z,39.86
2022-08-16T14:25:20.149Z,39.60
2022-08-16T14:27:49.629Z,38.31
2022-08-16T14:30:22.862Z,38.34
2022-08-16T14:32:52.500Z,39.08
2022-08-16T14:35:48.198Z,39.57
2022-08-16T14:38:18.121Z,39.87
2022-08-16T14:40:52.815Z,38.95
2022-08-16T14:43:24.521Z,39.16
2022-08-16T14:45:54.687Z,38.42
2022-08-16T14:48:25.833Z,40.04
2022-08-16T14:50:55.325Z,39.28
2022-08-16T14:53:25.544Z,40.04
2022-08-16T14:55:54.101Z,40.45
2022-08-16T14:58:35.091Z,38.26
2022-08-16T15:01:09.799Z,36.14
2022-08-16T15:03:37.939Z,36.61
2022-08-16T15:06:05.702Z,37.68
2022-08-16T15:08:36.616Z,36.63
2022-08-16T15:11:07.728Z,34.91
2022-08-16T15:13:35.868Z,35.38
2022-08-16T15:16:04.668Z,35.22
2022-08-16T15:18:33.514Z,34.46
2022-08-16T15:21:02.444Z,33.16
2022-08-16T15:23:31.496Z,32.87
2022-08-16T15:26:04.045Z,32.97
2022-08-16T15:28:36.622Z,33.65
2022-08-16T15:31:09.797Z,32.58
2022-08-16T15:33:56.401Z,32.27
2022-08-16T15:36:25.890Z,32.64
2022-08-16T15:39:07.815Z,33.09
2022-08-16T15:41:43.424Z,33.05
2022-08-16T15:44:21.121Z,32.92
2022-08-16T15:46:56.371Z,31.15
2022-08-16T15:49:34.632Z,31.45
2022-08-16T15:52:25.002Z,30.31
2022-08-16T15:55:07.490Z,31.08
2022-08-16T15:57:41.568Z,31.37
2022-08-16T16:00:15.004Z,31.42
2022-08-16T16:02:43.643Z,30.52
2022-08-16T16:05:10.790Z,30.60
2022-08-16T16:07:55.845Z,29.88
2022-08-16T16:10:29.323Z,28.96
2022-08-16T16:13:00.947Z,29.38
2022-08-16T16:15:37.518Z,29.94
2022-08-16T16:18:09.978Z,29.73
2022-08-16T16:20:43.526Z,28.95
2022-08-16T16:23:11.326Z,29.12
2022-08-16T16:25:43.883Z,28.88
2022-08-16T16:29:05.821Z,30.53
2022-08-16T16:31:13.226Z,29.24
2022-08-16T16:33:47.796Z,30.36
2022-08-16T16:36:22.248Z,30.71
2022-08-16T16:38:52.958Z,30.76
2022-08-16T16:41:25.529Z,30.29
2022-08-16T16:43:55.696Z,30.88
2022-08-16T16:46:42.242Z,30.95
2022-08-16T16:49:14.417Z,32.05
2022-08-16T16:51:44.542Z,32.75
2022-08-16T16:54:27.722Z,33.45
2022-08-16T16:56:56.847Z,33.16
2022-08-16T16:59:28.399Z,33.41
2022-08-16T17:02:01.444Z,33.67
2022-08-16T17:04:46.055Z,34.26
2022-08-16T17:07:14.504Z,34.71
2022-08-16T17:09:41.691Z,34.09
2022-08-16T17:12:17.645Z,34.92
2022-08-16T17:14:54.891Z,34.86
2022-08-16T17:17:23.510Z,34.37
2022-08-16T17:19:50.723Z,34.74
2022-08-16T17:22:21.735Z,35.46
2022-08-16T17:24:52.827Z,35.72
2022-08-16T17:27:33.561Z,36.04
2022-08-16T17:30:15.124Z,35.79
2022-08-16T17:32:54.526Z,36.31
2022-08-16T17:35:33.928Z,36.23
2022-08-16T17:38:09.183Z,36.94
2022-08-16T17:40:56.014Z,37.21
2022-08-16T17:43:36.993Z,38.25
2022-08-16T17:46:51.763Z,38.33
2022-08-16T17:49:02.175Z,40.16
2022-08-16T17:51:29.437Z,40.76
2022-08-16T17:53:56.828Z,41.73
2022-08-16T17:56:23.784Z,42.15
2022-08-16T17:58:50.851Z,42.11
2022-08-16T18:01:23.939Z,43.57
2022-08-16T18:04:07.894Z,42.83
2022-08-16T18:06:37.474Z,42.48
2022-08-16T18:09:05.965Z,43.25
2022-08-16T18:11:40.853Z,43.90
2022-08-16T18:14:09.770Z,44.43
2022-08-16T18:16:37.374Z,44.05
2022-08-16T18:19:06.546Z,44.67
2022-08-16T18:21:52.069Z,44.94
2022-08-16T18:24:19.106Z,44.70
2022-08-16T18:26:46.433Z,45.38
2022-08-16T18:29:13.775Z,44.97
2022-08-16T18:31:40.757Z,45.59
2022-08-16T18:34:07.984Z,46.11
2022-08-16T18:36:35.363Z,46.10
2022-08-16T18:39:02.810Z,47.05
2022-08-16T18:41:30.482Z,46.94
2022-08-16T18:44:24.744Z,48.25
2022-08-16T18:46:50.762Z,48.47
2022-08-16T18:49:19.682Z,48.48
2022-08-16T18:51:47.174Z,49.71
2022-08-16T18:54:19.508Z,50.41
2022-08-16T18:56:55.983Z,49.51
2022-08-16T18:59:30.680Z,50.09
2022-08-16T19:02:04.102Z,51.22
2022-08-16T19:04:56.811Z,50.67
2022-08-16T19:07:31.205Z,50.80
2022-08-16T19:10:01.509Z,50.99
2022-08-16T19:12:38.343Z,50.79
2022-08-16T19:15:17.681Z,53.72
2022-08-16T19:17:47.159Z,59.66
2022-08-16T19:20:20.148Z,61.80
2022-08-16T19:23:04.959Z,62.82
2022-08-16T19:25:47.395Z,58.94
2022-08-16T19:28:50.549Z,58.16
2022-08-16T19:31:28.734Z,58.19
2022-08-16T19:33:56.885Z,58.28
2022-08-16T19:36:37.394Z,59.26
2022-08-16T19:39:13.837Z,59.75
2022-08-16T19:41:53.791Z,59.44
2022-08-16T19:44:23.065Z,61.18
2022-08-16T19:46:51.181Z,59.03
2022-08-16T19:49:18.411Z,58.15
2022-08-16T19:51:47.099Z,57.72
2022-08-16T19:54:14.469Z,58.06
2022-08-16T19:56:41.558Z,56.39
2022-08-16T19:59:19.175Z,55.68
2022-08-16T20:01:49.975Z,57.33
2022-08-16T20:04:17.065Z,58.83
2022-08-16T20:06:44.136Z,58.99
2022-08-16T20:09:15.413Z,61.88
2022-08-16T20:11:49.490Z,63.95
2022-08-16T20:14:24.802Z,64.63
2022-08-16T20:16:56.053Z,64.75
2022-08-16T20:19:23.434Z,65.44
2022-08-16T20:21:50.599Z,64.84
2022-08-16T20:24:33.345Z,65.16
2022-08-16T20:27:04.904Z,66.83
2022-08-16T20:29:31.990Z,67.81
2022-08-16T20:31:59.112Z,66.47
2022-08-16T20:34:26.115Z,65.75
2022-08-16T20:36:53.136Z,64.38
2022-08-16T20:39:20.181Z,64.43
2022-08-16T20:41:47.170Z,64.27
2022-08-16T20:44:14.191Z,65.23
2022-08-16T20:46:41.264Z,63.50
2022-08-16T20:49:10.226Z,62.12
2022-08-16T20:51:49.855Z,61.21
2022-08-16T20:54:19.990Z,61.73
2022-08-16T20:56:47.367Z,64.10
2022-08-16T20:59:14.485Z,65.13
2022-08-16T21:01:46.762Z,64.56
2022-08-16T21:04:21.170Z,68.85
2022-08-16T21:06:54.354Z,69.47
2022-08-16T21:09:28.859Z,71.27
2022-08-16T21:11:57.643Z,72.37
2022-08-16T21:14:25.208Z,72.01
2022-08-16T21:16:52.483Z,71.64
2022-08-16T21:19:20.738Z,73.53
2022-08-16T21:21:48.508Z,71.87
2022-08-16T21:24:16.232Z,71.38
2022-08-16T21:26:53.957Z,71.30
2022-08-16T21:29:39.841Z,70.79
2022-08-16T21:32:18.571Z,72.49
2022-08-16T21:34:46.689Z,73.50
2022-08-16T21:37:15.677Z,73.67
2022-08-16T21:39:43.439Z,73.41
2022-08-16T21:42:16.710Z,74.20
2022-08-16T21:44:45.385Z,75.02
2022-08-16T21:47:12.415Z,76.43
2022-08-16T21:49:39.816Z,75.00
2022-08-16T21:52:09.616Z,73.75
2022-08-16T21:54:56.874Z,73.04
2022-08-16T21:57:24.397Z,73.57
2022-08-16T21:59:55.792Z,72.93
2022-08-16T22:02:35.624Z,73.94
2022-08-16T22:05:09.589Z,76.14
2022-08-16T22:07:37.295Z,76.24
2022-08-16T22:11:04.147Z,75.06
2022-08-16T22:12:55.053Z,74.74
2022-08-16T22:15:26.088Z,71.09
2022-08-16T22:17:57.816Z,71.18
2022-08-16T22:20:28.836Z,71.55
2022-08-16T22:23:22.872Z,69.45
2022-08-16T22:25:52.857Z,72.13
2022-08-16T22:28:21.883Z,73.07
2022-08-16T22:30:49.800Z,72.82
2022-08-16T22:33:23.225Z,72.72
2022-08-16T22:36:01.259Z,72.97
2022-08-16T22:38:54.046Z,73.39
2022-08-16T22:41:17.849Z,72.87
2022-08-16T22:43:48.951Z,71.72
2022-08-16T22:46:16.155Z,70.94
2022-08-16T22:48:43.126Z,72.08
2022-08-16T22:51:10.384Z,72.13
2022-08-16T22:53:37.762Z,74.30
2022-08-16T22:56:05.322Z,75.23
2022-08-16T22:58:36.196Z,76.42
2022-08-16T23:01:08.080Z,77.69
2022-08-16T23:03:37.552Z,77.06
2022-08-16T23:06:06.596Z,76.54
2022-08-16T23:08:39.168Z,74.46
2022-08-16T23:11:14.235Z,73.52
2022-08-16T23:13:52.740Z,74.96
2022-08-16T23:16:34.640Z,74.91
2022-08-16T23:19:10.260Z,75.96
2022-08-16T23:21:42.386Z,75.24
2022-08-16T23:24:11.867Z,75.92
2022-08-16T23:26:46.084Z,76.00
2022-08-16T23:29:24.399Z,75.71
2022-08-16T23:32:10.667Z,75.94
2022-08-16T23:34:37.783Z,76.28
2022-08-16T23:37:06.436Z,77.29
2022-08-16T23:39:33.511Z,77.75
2022-08-16T23:42:00.759Z,78.25
2022-08-16T23:44:55.924Z,78.98
2022-08-16T23:47:14.793Z,78.60
2022-08-16T23:50:00.199Z,76.57
2022-08-16T23:52:45.724Z,76.23
2022-08-16T23:55:17.329Z,77.51
2022-08-16T23:57:45.978Z,76.00
